Time;durP1;ratioP1;P1;durP2;ratioP2;P2;SDS_P1;SDS_P2;PMS_P1;PMS_P2;Temp;Humidity;BMP_temperature;BMP_pressure;BME280_temperature;BME280_humidity;BME280_pressure;Samples;Min_cycle;Max_cycle;Signal;HPM_P1;HPM_P2
2023/08/02 00:02:08;;;;;;;3.55;2.33;;;;;;;14.87;100.00;99333.50;4915996;29;20046;-85
2023/08/02 00:04:35;;;;;;;2.53;2.33;;;;;;;14.93;100.00;99335.81;4911091;28;20047;-84
2023/08/02 00:07:02;;;;;;;4.97;2.85;;;;;;;14.94;100.00;99334.84;4903023;28;20055;-86
2023/08/02 00:09:29;;;;;;;3.67;2.30;;;;;;;15.00;100.00;99325.66;4910955;28;20397;-85
2023/08/02 00:11:56;;;;;;;3.30;2.38;;;;;;;14.99;100.00;99330.13;4923666;28;20075;-87
2023/08/02 00:14:23;;;;;;;4.10;2.42;;;;;;;15.07;100.00;99329.69;4925791;28;20127;-85
2023/08/02 00:16:50;;;;;;;6.35;3.25;;;;;;;15.05;100.00;99329.78;4911582;28;20134;-85
2023/08/02 00:19:17;;;;;;;3.50;2.10;;;;;;;14.97;100.00;99329.38;4911925;28;20043;-85
2023/08/02 00:21:44;;;;;;;4.50;2.30;;;;;;;14.99;100.00;99324.81;4924104;28;20143;-86
2023/08/02 00:24:11;;;;;;;4.72;2.65;;;;;;;15.00;100.00;99325.66;4917146;28;20531;-84
2023/08/02 00:26:38;;;;;;;3.97;2.30;;;;;;;15.07;100.00;99321.69;4931352;28;20139;-84
2023/08/02 00:29:07;;;;;;;4.55;2.40;;;;;;;14.99;100.00;99322.16;4911376;28;20190;-84
2023/08/02 00:31:33;;;;;;;3.25;2.30;;;;;;;15.01;100.00;99322.91;4923937;28;20044;-83
2023/08/02 00:34:00;;;;;;;3.50;2.50;;;;;;;14.99;100.00;99327.47;4921257;28;20505;-83
2023/08/02 00:36:27;;;;;;;4.30;2.58;;;;;;;15.07;100.00;99330.53;4930474;28;20050;-83
2023/08/02 00:39:04;;;;;;;4.40;2.50;;;;;;;15.04;100.00;99322.72;4916917;28;20090;-85
2023/08/02 00:41:31;;;;;;;4.82;2.30;;;;;;;15.05;100.00;99340.41;4915158;28;20046;-85
2023/08/02 00:43:57;;;;;;;3.28;2.42;;;;;;;14.93;100.00;99330.47;4913522;28;20038;-87
2023/08/02 00:46:24;;;;;;;4.38;2.65;;;;;;;14.94;100.00;99332.19;4938896;28;20043;-86
2023/08/02 00:48:51;;;;;;;6.80;2.78;;;;;;;14.94;100.00;99329.53;4924904;29;20064;-83
2023/08/02 00:51:19;;;;;;;3.75;2.42;;;;;;;14.95;100.00;99328.59;4934402;28;20508;-84
2023/08/02 00:53:46;;;;;;;5.10;2.45;;;;;;;14.97;100.00;99336.50;4939340;28;20038;-85
2023/08/02 00:56:15;;;;;;;4.32;2.88;;;;;;;14.88;100.00;99335.22;4910186;28;20134;-83
2023/08/02 00:58:41;;;;;;;5.38;2.33;;;;;;;14.89;100.00;99335.16;4912999;28;20130;-82
2023/08/02 01:01:08;;;;;;;4.22;2.55;;;;;;;14.82;100.00;99331.13;4916145;28;20138;-85
2023/08/02 01:03:44;;;;;;;3.42;2.50;;;;;;;14.81;100.00;99336.53;4917077;28;20047;-85
2023/08/02 01:06:29;;;;;;;4.20;2.80;;;;;;;14.87;100.00;99334.34;4902267;28;20043;-82
2023/08/02 01:09:09;;;;;;;6.18;2.70;;;;;;;14.87;100.00;99337.00;4933291;28;20059;-84
2023/08/02 01:11:49;;;;;;;6.00;2.90;;;;;;;14.86;100.00;99337.97;4934677;28;20087;-83
2023/08/02 01:14:20;;;;;;;5.57;3.00;;;;;;;14.82;100.00;99332.94;4933375;28;20051;-83
2023/08/02 01:16:48;;;;;;;3.85;2.60;;;;;;;14.76;100.00;99338.59;4931224;29;20040;-85
2023/08/02 01:19:21;;;;;;;5.15;2.90;;;;;;;14.87;100.00;99333.50;4915576;28;20043;-84
2023/08/02 01:21:50;;;;;;;9.52;3.10;;;;;;;14.84;100.00;99326.56;4916885;28;20050;-83
2023/08/02 01:24:17;;;;;;;6.28;2.90;;;;;;;14.85;100.00;99322.09;4891845;28;20063;-84
2023/08/02 01:26:47;;;;;;;6.45;3.15;;;;;;;14.87;100.00;99331.69;4912801;28;20066;-83
2023/08/02 01:29:17;;;;;;;5.40;2.95;;;;;;;14.88;100.00;99332.56;4917098;28;20516;-84
2023/08/02 01:31:44;;;;;;;4.35;2.78;;;;;;;14.92;100.00;99331.44;4915169;28;20039;-84
2023/08/02 01:34:12;;;;;;;6.07;3.10;;;;;;;14.91;100.00;99341.22;4960422;28;20047;-83
2023/08/02 01:36:39;;;;;;;3.72;2.50;;;;;;;15.01;100.00;99332.69;4909840;28;20055;-82
2023/08/02 01:39:06;;;;;;;4.57;2.80;;;;;;;14.96;100.00;99332.94;4945108;28;20067;-84
2023/08/02 01:41:33;;;;;;;5.82;3.10;;;;;;;14.93;100.00;99331.34;4922974;28;20071;-86
2023/08/02 01:44:00;;;;;;;5.63;3.13;;;;;;;15.02;100.00;99331.75;4914244;28;20164;-82
2023/08/02 01:46:26;;;;;;;4.82;2.88;;;;;;;15.08;100.00;99334.91;4901128;28;20035;-82
2023/08/02 01:48:56;;;;;;;6.20;2.80;;;;;;;15.09;100.00;99333.09;4907072;28;20047;-84
2023/08/02 01:51:22;;;;;;;5.80;3.75;;;;;;;15.07;100.00;99340.31;4927898;28;20043;-82
2023/08/02 01:53:49;;;;;;;5.05;2.88;;;;;;;15.05;100.00;99328.88;4943834;28;20115;-83
2023/08/02 01:56:16;;;;;;;5.07;2.92;;;;;;;15.01;100.00;99330.03;4937870;29;20035;-83
2023/08/02 01:58:43;;;;;;;3.95;3.10;;;;;;;15.04;100.00;99333.34;4903490;28;20082;-83
2023/08/02 02:01:10;;;;;;;6.55;2.92;;;;;;;15.16;100.00;99337.09;4929781;28;20044;-84
2023/08/02 02:03:36;;;;;;;5.38;3.78;;;;;;;15.18;100.00;99335.19;4918867;28;20150;-82
2023/08/02 02:06:03;;;;;;;3.08;2.45;;;;;;;15.19;100.00;99344.88;4918347;28;20040;-83
2023/08/02 02:08:30;;;;;;;4.45;2.70;;;;;;;15.14;100.00;99337.19;4920125;28;20298;-83
2023/08/02 02:10:57;;;;;;;7.65;3.08;;;;;;;15.15;100.00;99338.91;4905577;28;20078;-84
2023/08/02 02:13:24;;;;;;;4.05;2.60;;;;;;;15.11;100.00;99332.03;4930925;28;20044;-81
2023/08/02 02:15:51;;;;;;;6.80;2.70;;;;;;;15.15;100.00;99335.38;4903667;28;20043;-82
2023/08/02 02:18:18;;;;;;;3.22;2.40;;;;;;;15.17;100.00;99336.16;4899986;28;20112;-84
2023/08/02 02:20:45;;;;;;;3.63;2.47;;;;;;;15.09;100.00;99331.28;4917912;28;20040;-84
2023/08/02 02:23:14;;;;;;;4.25;2.53;;;;;;;15.21;100.00;99337.66;4916073;29;20122;-83
2023/08/02 02:25:41;;;;;;;4.00;2.70;;;;;;;15.17;100.00;99344.97;4897454;28;20068;-83
2023/08/02 02:28:08;;;;;;;3.97;2.65;;;;;;;15.07;100.00;99340.31;4914226;28;20107;-84
2023/08/02 02:30:35;;;;;;;6.10;2.50;;;;;;;15.09;100.00;99336.59;4918527;28;20092;-83
2023/08/02 02:33:03;;;;;;;5.20;2.67;;;;;;;15.09;100.00;99333.09;4929086;28;20069;-86
2023/08/02 02:35:30;;;;;;;5.00;3.28;;;;;;;15.11;100.00;99333.84;4919994;28;20068;-85
2023/08/02 02:37:56;;;;;;;4.20;2.55;;;;;;;15.04;100.00;99333.34;4926947;28;20097;-83
2023/08/02 02:40:23;;;;;;;6.68;2.50;;;;;;;15.01;100.00;99336.22;4902386;28;20079;-83
2023/08/02 02:42:50;;;;;;;3.65;2.53;;;;;;;15.04;100.00;99337.81;4913273;28;20098;-84
2023/08/02 02:45:17;;;;;;;3.67;2.63;;;;;;;14.97;100.00;99333.84;4901029;28;20067;-83
2023/08/02 02:47:43;;;;;;;4.97;3.10;;;;;;;14.91;100.00;99332.38;4924237;28;20067;-84
2023/08/02 02:50:10;;;;;;;3.70;2.50;;;;;;;15.01;100.00;99322.91;4927231;28;20044;-83
2023/08/02 02:52:37;;;;;;;6.07;3.17;;;;;;;14.93;100.00;99326.03;4924781;28;20051;-80
2023/08/02 02:55:04;;;;;;;4.70;2.50;;;;;;;14.98;100.00;99322.25;4934463;28;20043;-84
2023/08/02 02:57:31;;;;;;;4.43;2.58;;;;;;;14.89;100.00;99323.66;4916674;28;20098;-83
2023/08/02 02:59:57;;;;;;;3.80;2.85;;;;;;;14.96;100.00;99327.63;4906721;28;20074;-82
2023/08/02 03:02:29;;;;;;;4.05;2.40;;;;;;;14.91;100.00;99330.59;4910372;28;20530;-82
2023/08/02 03:04:56;;;;;;;4.38;2.42;;;;;;;14.86;100.00;99330.00;4909143;28;20047;-83
2023/08/02 03:07:23;;;;;;;5.43;2.67;;;;;;;14.90;100.00;99331.53;4908847;28;20054;-83
2023/08/02 03:09:50;;;;;;;4.15;2.42;;;;;;;14.93;100.00;99341.13;4877374;28;1030819;-84
2023/08/02 03:12:16;;;;;;;7.75;2.85;;;;;;;14.81;100.00;99336.53;4973119;28;20038;-82
2023/08/02 03:14:43;;;;;;;4.68;2.60;;;;;;;14.83;100.00;99339.97;4918619;29;20039;-81
2023/08/02 03:17:10;;;;;;;5.13;2.85;;;;;;;14.88;100.00;99338.75;4924943;28;20036;-82
2023/08/02 03:19:37;;;;;;;4.10;2.80;;;;;;;14.91;100.00;99332.38;4917372;28;20475;-82
2023/08/02 03:22:04;;;;;;;6.25;2.67;;;;;;;14.85;100.00;99332.75;4915969;28;20067;-83
2023/08/02 03:24:34;;;;;;;4.68;2.70;;;;;;;14.73;100.00;99333.47;4910160;28;20044;-82
2023/08/02 03:27:01;;;;;;;5.10;2.90;;;;;;;14.76;100.00;99328.81;4932604;28;20047;-82
2023/08/02 03:29:28;;;;;;;5.03;2.22;;;;;;;14.70;100.00;99336.28;4922118;29;20035;-83
2023/08/02 03:31:55;;;;;;;4.35;2.88;;;;;;;14.78;100.00;99334.03;4899765;28;20055;-82
2023/08/02 03:34:28;;;;;;;4.85;2.90;;;;;;;14.62;100.00;99332.28;4915289;28;20135;-83
2023/08/02 03:36:54;;;;;;;4.95;2.75;;;;;;;14.66;100.00;99332.13;4927159;28;20065;-82
2023/08/02 03:39:21;;;;;;;7.07;2.85;;;;;;;14.57;100.00;99342.34;4901197;28;20452;-82
2023/08/02 03:41:48;;;;;;;5.35;2.40;;;;;;;14.52;100.00;99348.84;4916901;28;20093;-83
2023/08/02 03:44:14;;;;;;;6.22;2.90;;;;;;;14.53;100.00;99354.06;4916019;28;20060;-81
2023/08/02 03:46:41;;;;;;;5.63;2.92;;;;;;;14.69;100.00;99354.06;4898805;28;20039;-85
2023/08/02 03:49:08;;;;;;;3.08;2.60;;;;;;;14.60;100.00;99352.78;4926850;28;20044;-82
2023/08/02 03:51:35;;;;;;;4.38;2.63;;;;;;;14.71;100.00;99352.16;4929875;28;20074;-83
2023/08/02 03:54:03;;;;;;;3.97;2.50;;;;;;;14.79;100.00;99359.69;4903519;28;20040;-82
2023/08/02 03:56:30;;;;;;;4.22;2.38;;;;;;;14.81;100.00;99352.50;4916936;28;20498;-82
2023/08/02 03:58:57;;;;;;;9.07;2.85;;;;;;;14.77;100.00;99350.94;4916192;29;20073;-82
2023/08/02 04:01:28;;;;;;;5.68;2.95;;;;;;;14.82;100.00;99346.22;4916185;28;20512;-83
2023/08/02 04:03:55;;;;;;;3.67;2.70;;;;;;;14.83;100.00;99347.94;4936266;28;20040;-83
2023/08/02 04:06:22;;;;;;;3.35;2.38;;;;;;;14.81;100.00;99347.19;4933420;28;20657;-80
2023/08/02 04:08:49;;;;;;;4.05;2.60;;;;;;;14.85;100.00;99346.03;4918865;28;20060;-82
2023/08/02 04:11:16;;;;;;;4.25;2.47;;;;;;;14.90;100.00;99346.63;4947797;28;20501;-82
2023/08/02 04:13:42;;;;;;;4.65;1.98;;;;;;;14.92;100.00;99344.72;4900567;29;20134;-84
2023/08/02 04:16:09;;;;;;;12.00;2.83;;;;;;;14.97;100.00;99342.66;4919973;28;20090;-83
2023/08/02 04:18:36;;;;;;;3.90;2.47;;;;;;;15.06;100.00;99342.13;4935882;28;20385;-81
2023/08/02 04:21:03;;;;;;;6.70;2.80;;;;;;;15.12;100.00;99348.84;4916344;29;20067;-84
2023/08/02 04:23:32;;;;;;;6.47;2.42;;;;;;;15.14;100.00;99352.31;4921395;28;20067;-84
2023/08/02 04:25:59;;;;;;;5.05;2.33;;;;;;;15.21;100.00;99342.97;4923201;29;20086;-84
2023/08/02 04:28:26;;;;;;;4.78;2.72;;;;;;;15.26;100.00;99353.34;4905917;28;20695;-81
2023/08/02 04:30:53;;;;;;;2.85;2.17;;;;;;;15.28;100.00;99360.28;4922351;28;20403;-83
2023/08/02 04:33:20;;;;;;;4.72;2.92;;;;;;;15.38;100.00;99353.44;4935830;28;20043;-84
2023/08/02 04:35:47;;;;;;;3.67;2.22;;;;;;;15.38;100.00;99349.94;4915802;28;20094;-83
2023/08/02 04:38:14;;;;;;;5.45;2.65;;;;;;;15.46;100.00;99351.19;4932347;28;20043;-83
2023/08/02 04:40:40;;;;;;;4.78;2.30;;;;;;;15.44;100.00;99347.75;4913684;28;20296;-83
2023/08/02 04:43:07;;;;;;;7.05;2.20;;;;;;;15.52;100.00;99347.28;4905796;28;20075;-83
2023/08/02 04:45:34;;;;;;;4.22;2.55;;;;;;;15.50;100.00;99357.19;4908669;28;20497;-83
2023/08/02 04:48:01;;;;;;;5.13;2.58;;;;;;;15.55;100.00;99347.09;4930369;28;20051;-84
2023/08/02 04:50:27;;;;;;;3.03;2.38;;;;;;;15.52;100.00;99355.28;4919811;28;20046;-83
2023/08/02 04:52:54;;;;;;;6.60;2.30;;;;;;;15.48;100.00;99343.13;4902106;29;20449;-84
2023/08/02 04:55:21;;;;;;;4.45;2.65;;;;;;;15.47;100.00;99350.25;4947565;28;20042;-82
2023/08/02 04:57:48;;;;;;;6.07;2.50;;;;;;;15.56;100.00;99340.84;4931792;28;20131;-83
2023/08/02 05:00:15;;;;;;;6.20;2.28;;;;;;;15.57;100.00;99342.56;4921046;28;20046;-84
2023/08/02 05:02:42;;;;;;;5.15;2.58;;;;;;;15.58;100.00;99338.94;4965368;28;20055;-82
2023/08/02 05:05:09;;;;;;;4.25;2.45;;;;;;;15.57;100.00;99342.56;4919142;28;20040;-83
2023/08/02 05:07:37;;;;;;;6.65;3.10;;;;;;;15.66;100.00;99344.69;4920483;28;20047;-83
2023/08/02 05:10:07;;;;;;;5.25;2.40;;;;;;;15.60;100.00;99345.00;4917111;29;20048;-83
2023/08/02 05:12:35;;;;;;;4.28;2.60;;;;;;;15.64;100.00;99341.25;4907037;28;20098;-83
2023/08/02 05:15:02;;;;;;;5.18;2.72;;;;;;;15.56;100.00;99332.88;4929229;29;20139;-83
2023/08/02 05:17:29;;;;;;;3.42;2.40;;;;;;;15.53;100.00;99335.69;4911740;28;20524;-84
2023/08/02 05:19:58;;;;;;;4.93;2.92;;;;;;;15.61;100.00;99333.44;4925692;28;20438;-84
2023/08/02 05:22:25;;;;;;;8.60;3.03;;;;;;;15.70;100.00;99332.88;4931346;28;20066;-82
2023/08/02 05:24:52;;;;;;;6.00;2.53;;;;;;;15.69;100.00;99338.28;4949525;28;20389;-82
2023/08/02 05:27:19;;;;;;;6.07;2.85;;;;;;;15.92;100.00;99347.50;4911639;28;20072;-84
2023/08/02 05:29:46;;;;;;;5.07;2.75;;;;;;;15.94;100.00;99350.94;4914078;28;20040;-84
2023/08/02 05:32:13;;;;;;;5.95;2.75;;;;;;;15.92;100.00;99358.16;4918834;28;20043;-85
2023/08/02 05:34:39;;;;;;;5.22;2.60;;;;;;;15.90;100.00;99352.09;4905003;29;20523;-84
2023/08/02 05:37:06;;;;;;;4.22;2.97;;;;;;;15.88;100.00;99351.31;4945928;28;20058;-82
2023/08/02 05:39:33;;;;;;;4.93;2.58;;;;;;;15.95;100.00;99347.31;4913402;28;20051;-83
2023/08/02 05:41:59;;;;;;;3.38;2.70;;;;;;;16.02;100.00;99353.97;4943757;28;20492;-85
2023/08/02 05:44:28;;;;;;;40.38;32.17;;;;;;;16.04;100.00;99352.03;4941387;28;20524;-85
2023/08/02 05:46:55;;;;;;;5.65;4.03;;;;;;;16.04;100.00;99352.91;4950613;28;20503;-82
2023/08/02 05:49:22;;;;;;;4.93;3.05;;;;;;;16.07;100.00;99343.88;4926378;28;20068;-82
2023/08/02 05:51:50;;;;;;;9.90;3.20;;;;;;;16.16;100.00;99337.09;4903528;28;20047;-86
2023/08/02 05:54:20;;;;;;;4.80;3.13;;;;;;;16.14;100.00;99342.50;4916183;29;20047;-83
2023/08/02 05:56:47;;;;;;;3.53;2.40;;;;;;;16.36;100.00;99331.31;4921951;28;20030;-83
2023/08/02 05:59:13;;;;;;;5.15;3.33;;;;;;;16.51;100.00;99340.13;4900625;28;20048;-84
2023/08/02 06:01:40;;;;;;;6.75;3.00;;;;;;;16.58;100.00;99338.78;4898070;28;20105;-83
2023/08/02 06:04:07;;;;;;;4.47;2.72;;;;;;;16.74;100.00;99336.84;4907587;28;20536;-84
2023/08/02 06:06:34;;;;;;;3.63;2.70;;;;;;;16.98;100.00;99342.31;4912939;28;20047;-83
2023/08/02 06:09:01;;;;;;;3.70;2.38;;;;;;;17.14;100.00;99342.97;4897653;28;20501;-82
2023/08/02 06:11:28;;;;;;;5.78;3.10;;;;;;;17.35;100.00;99346.00;4897009;28;20063;-85
2023/08/02 06:13:54;;;;;;;6.00;2.70;;;;;;;17.42;100.00;99347.28;4910208;28;20040;-83
2023/08/02 06:16:22;;;;;;;4.30;2.88;;;;;;;17.55;100.00;99344.59;4895118;28;20040;-83
2023/08/02 06:18:49;;;;;;;5.75;2.92;;;;;;;17.63;100.00;99341.38;4900445;28;20044;-82
2023/08/02 06:21:16;;;;;;;4.05;2.92;;;;;;;17.69;100.00;99349.81;4898737;28;20098;-82
2023/08/02 06:23:43;;;;;;;5.00;2.50;;;;;;;17.82;99.59;99349.81;4929520;28;20619;-82
2023/08/02 06:26:09;;;;;;;3.72;2.50;;;;;;;18.26;98.81;99346.66;4977429;28;20110;-82
2023/08/02 06:28:36;;;;;;;4.25;2.70;;;;;;;18.60;94.48;99346.84;4911528;28;20047;-84
2023/08/02 06:31:03;;;;;;;3.55;2.60;;;;;;;19.17;92.36;99342.56;4947122;28;20035;-82
2023/08/02 06:33:30;;;;;;;5.43;2.90;;;;;;;19.47;88.10;99342.88;4910227;28;20040;-83
2023/08/02 06:35:57;;;;;;;4.30;2.75;;;;;;;19.68;86.02;99343.06;4910519;28;20162;-80
2023/08/02 06:38:24;;;;;;;5.22;2.35;;;;;;;19.88;85.05;99342.31;4938404;28;20112;-81
2023/08/02 06:40:53;;;;;;;4.95;2.50;;;;;;;20.05;79.64;99340.13;4923147;28;20044;-85
2023/08/02 06:43:20;;;;;;;3.95;2.40;;;;;;;20.54;80.22;99331.63;4935907;28;20035;-82
2023/08/02 06:45:47;;;;;;;4.55;2.30;;;;;;;20.82;76.52;99323.94;4925309;28;20063;-81
2023/08/02 06:48:19;;;;;;;5.55;2.63;;;;;;;21.12;77.61;99329.44;4933153;28;20043;-82
2023/08/02 06:50:46;;;;;;;3.95;2.50;;;;;;;21.29;78.80;99328.88;4939054;28;20069;-83
2023/08/02 06:53:12;;;;;;;4.60;2.50;;;;;;;21.19;75.39;99341.34;4929569;28;20127;-81
2023/08/02 06:55:39;;;;;;;4.60;3.28;;;;;;;21.07;74.75;99345.06;4921834;28;20098;-85
2023/08/02 06:58:08;;;;;;;5.82;2.75;;;;;;;20.88;74.46;99329.66;4910942;28;20050;-85
2023/08/02 07:00:35;;;;;;;6.30;3.30;;;;;;;20.79;77.02;99335.81;4928057;28;20086;-84
2023/08/02 07:03:03;;;;;;;4.22;2.90;;;;;;;20.68;77.65;99338.50;4921669;28;20050;-84
2023/08/02 07:05:30;;;;;;;5.00;2.38;;;;;;;20.49;77.52;99328.47;4934273;28;20071;-84
2023/08/02 07:07:58;;;;;;;6.05;2.75;;;;;;;20.49;78.61;99325.78;4917367;28;20674;-83
2023/08/02 07:10:26;;;;;;;6.80;2.90;;;;;;;20.45;77.23;99337.75;4918381;28;20130;-80
2023/08/02 07:12:54;;;;;;;5.50;2.75;;;;;;;20.48;78.80;99330.28;4916417;29;20039;-82
2023/08/02 07:15:20;;;;;;;6.28;3.00;;;;;;;20.42;76.42;99333.44;4943011;28;20055;-81
2023/08/02 07:17:48;;;;;;;2.83;2.45;;;;;;;20.36;81.88;99320.56;4923094;28;20143;-83
2023/08/02 07:20:23;;;;;;;5.63;2.80;;;;;;;20.24;77.99;99313.50;4921527;29;20044;-84
2023/08/02 07:22:50;;;;;;;4.82;3.13;;;;;;;20.22;78.96;99313.63;4916080;28;20048;-81
2023/08/02 07:25:17;;;;;;;3.53;2.58;;;;;;;20.16;79.54;99303.41;4937970;28;20485;-82
2023/08/02 07:27:50;;;;;;;5.90;3.60;;;;;;;20.13;75.30;99306.34;4932191;28;20047;-85
2023/08/02 07:30:20;;;;;;;8.65;3.65;;;;;;;20.15;78.61;99304.38;4914869;28;20130;-83
2023/08/02 07:32:46;;;;;;;6.70;2.58;;;;;;;20.28;79.80;99306.06;4934801;29;20062;-81
2023/08/02 07:35:13;;;;;;;3.63;2.83;;;;;;;20.21;75.21;99286.94;4924590;28;20043;-82
2023/08/02 07:37:40;;;;;;;6.13;3.20;;;;;;;20.47;79.00;99291.03;4917124;28;20068;-83
2023/08/02 07:40:13;;;;;;;5.90;2.97;;;;;;;20.69;76.22;99292.78;4906031;28;20048;-82
2023/08/02 07:42:40;;;;;;;5.88;2.80;;;;;;;20.96;76.19;99286.91;4939070;28;20067;-82
2023/08/02 07:45:09;;;;;;;5.80;3.17;;;;;;;21.26;75.50;99296.84;4936992;28;20047;-80
2023/08/02 07:47:37;;;;;;;3.88;2.50;;;;;;;21.46;74.15;99287.09;4951298;28;20070;-85
2023/08/02 07:50:05;;;;;;;5.03;3.00;;;;;;;21.69;73.53;99287.75;4906314;28;20036;-84
2023/08/02 07:52:32;;;;;;;6.43;2.90;;;;;;;21.85;72.80;99289.94;4936871;29;20043;-83
2023/08/02 07:54:59;;;;;;;4.88;2.65;;;;;;;21.71;68.36;99293.00;4904858;28;20138;-85
2023/08/02 07:57:29;;;;;;;2.70;2.20;;;;;;;21.48;66.45;99284.28;4924800;28;20040;-83
2023/08/02 07:59:59;;;;;;;4.78;2.70;;;;;;;21.27;68.47;99286.97;4915895;28;20884;-81
2023/08/02 08:02:26;;;;;;;3.75;2.55;;;;;;;21.16;69.64;99287.03;4939769;29;20055;-83
2023/08/02 08:04:54;;;;;;;2.90;2.40;;;;;;;21.11;70.30;99278.53;4917721;29;20043;-83
2023/08/02 08:07:24;;;;;;;5.20;2.58;;;;;;;21.29;76.72;99282.34;4914552;29;21300;-81
2023/08/02 08:09:50;;;;;;;4.72;3.10;;;;;;;21.51;70.50;99286.69;4917173;28;20063;-83
2023/08/02 08:12:17;;;;;;;6.20;2.80;;;;;;;21.44;69.19;99286.38;4919996;28;20056;-82
2023/08/02 08:14:44;;;;;;;5.03;3.67;;;;;;;21.49;70.35;99285.97;4916972;28;20073;-80
2023/08/02 08:17:11;;;;;;;3.78;2.55;;;;;;;21.65;70.39;99286.34;4934468;29;20031;-84
2023/08/02 08:19:37;;;;;;;5.15;2.60;;;;;;;21.63;69.75;99288.31;4950135;28;20134;-82
2023/08/02 08:22:05;;;;;;;3.67;2.70;;;;;;;21.95;68.97;99282.78;4925383;28;20050;-83
2023/08/02 08:24:31;;;;;;;5.40;2.90;;;;;;;22.31;66.24;99292.06;4907683;28;20047;-84
2023/08/02 08:26:58;;;;;;;6.18;2.50;;;;;;;22.34;67.45;99297.16;4930086;28;20039;-83
2023/08/02 08:29:26;;;;;;;3.95;2.70;;;;;;;22.07;64.01;99287.06;4912355;28;20051;-82
2023/08/02 08:31:53;;;;;;;3.17;2.20;;;;;;;22.17;68.33;99284.41;4906319;29;20044;-81
2023/08/02 08:34:20;;;;;;;3.17;2.10;;;;;;;22.07;64.21;99292.44;4953749;28;20046;-83
2023/08/02 08:36:47;;;;;;;4.13;2.78;;;;;;;22.04;67.17;99283.78;4946948;28;20092;-81
2023/08/02 08:39:13;;;;;;;7.68;2.80;;;;;;;21.80;65.59;99290.34;4906757;29;20051;-82
2023/08/02 08:41:40;;;;;;;5.43;2.80;;;;;;;21.84;67.49;99289.09;4952539;28;20053;-84
2023/08/02 08:44:07;;;;;;;4.75;2.30;;;;;;;21.71;67.99;99288.47;4939613;29;20048;-83
2023/08/02 08:46:34;;;;;;;6.88;3.00;;;;;;;21.75;69.56;99284.53;4912862;28;20048;-84
2023/08/02 08:49:03;;;;;;;4.20;2.40;;;;;;;21.60;67.87;99285.88;4946439;28;20047;-84
2023/08/02 08:51:33;;;;;;;4.35;2.42;;;;;;;21.49;64.88;99288.66;4926889;28;20119;-85
2023/08/02 08:54:05;;;;;;;3.35;2.28;;;;;;;21.53;66.77;99282.91;4929467;28;20051;-80
